sensor_id;sensor_type;location;lat;lon;timestamp;pressure;altitude;pressure_sealevel;temperature;humidity
250;BME280;109;19.806;-70.704;2023-03-14T00:00:13;101461.72;;;24.29;67.22
250;BME280;109;19.806;-70.704;2023-03-14T00:02:40;101459.72;;;24.34;67.18
250;BME280;109;19.806;-70.704;2023-03-14T00:05:08;101462.16;;;24.19;66.65
250;BME280;109;19.806;-70.704;2023-03-14T00:07:36;101470.03;;;24.22;66.83
250;BME280;109;19.806;-70.704;2023-03-14T00:10:13;101481.72;;;24.19;66.79
250;BME280;109;19.806;-70.704;2023-03-14T00:12:41;101479.81;;;24.23;66.37
250;BME280;109;19.806;-70.704;2023-03-14T00:15:08;101482.38;;;24.26;66.44
250;BME280;109;19.806;-70.704;2023-03-14T00:17:35;101486.78;;;24.27;66.76
250;BME280;109;19.806;-70.704;2023-03-14T00:20:05;101487.72;;;24.26;66.73
250;BME280;109;19.806;-70.704;2023-03-14T00:22:35;101492.84;;;24.32;66.27
250;BME280;109;19.806;-70.704;2023-03-14T00:25:02;101492.03;;;24.30;66.72
250;BME280;109;19.806;-70.704;2023-03-14T00:27:28;101495.38;;;24.35;66.76
250;BME280;109;19.806;-70.704;2023-03-14T00:29:55;101498.19;;;24.32;66.48
250;BME280;109;19.806;-70.704;2023-03-14T00:32:21;101492.13;;;24.27;66.27
250;BME280;109;19.806;-70.704;2023-03-14T00:34:48;101496.69;;;24.25;66.29
250;BME280;109;19.806;-70.704;2023-03-14T00:37:15;101496.78;;;24.22;66.71
250;BME280;109;19.806;-70.704;2023-03-14T00:39:41;101490.44;;;24.24;67.16
250;BME280;109;19.806;-70.704;2023-03-14T00:42:08;101506.28;;;24.30;66.81
250;BME280;109;19.806;-70.704;2023-03-14T00:44:35;101502.72;;;24.30;67.11
250;BME280;109;19.806;-70.704;2023-03-14T00:47:01;101496.44;;;24.31;67.36
250;BME280;109;19.806;-70.704;2023-03-14T00:49:28;101498.91;;;24.35;67.28
250;BME280;109;19.806;-70.704;2023-03-14T00:52:01;101502.56;;;24.33;67.35
250;BME280;109;19.806;-70.704;2023-03-14T00:54:28;101508.03;;;24.31;67.40
250;BME280;109;19.806;-70.704;2023-03-14T00:57:01;101514.09;;;24.35;67.07
250;BME280;109;19.806;-70.704;2023-03-14T00:59:28;101504.59;;;24.28;67.19
250;BME280;109;19.806;-70.704;2023-03-14T01:02:01;101504.81;;;24.22;67.42
250;BME280;109;19.806;-70.704;2023-03-14T01:04:28;101505.50;;;24.27;67.46
250;BME280;109;19.806;-70.704;2023-03-14T01:07:03;101505.81;;;24.19;66.97
250;BME280;109;19.806;-70.704;2023-03-14T01:09:31;101513.06;;;24.16;66.75
250;BME280;109;19.806;-70.704;2023-03-14T01:12:04;101511.09;;;24.21;67.19
250;BME280;109;19.806;-70.704;2023-03-14T01:14:31;101515.28;;;24.28;67.28
250;BME280;109;19.806;-70.704;2023-03-14T01:17:04;101517.25;;;24.23;67.27
250;BME280;109;19.806;-70.704;2023-03-14T01:19:30;101514.59;;;24.23;67.10
250;BME280;109;19.806;-70.704;2023-03-14T01:22:04;101516.72;;;24.13;66.76
250;BME280;109;19.806;-70.704;2023-03-14T01:24:31;101519.06;;;23.99;67.03
250;BME280;109;19.806;-70.704;2023-03-14T01:27:04;101518.91;;;24.03;66.50
250;BME280;109;19.806;-70.704;2023-03-14T01:29:31;101514.47;;;24.02;66.91
250;BME280;109;19.806;-70.704;2023-03-14T01:32:04;101526.22;;;23.98;66.50
250;BME280;109;19.806;-70.704;2023-03-14T01:34:31;101524.34;;;24.00;66.65
250;BME280;109;19.806;-70.704;2023-03-14T01:37:04;101525.16;;;24.02;66.88
250;BME280;109;19.806;-70.704;2023-03-14T01:39:48;101527.03;;;24.00;66.81
250;BME280;109;19.806;-70.704;2023-03-14T01:42:15;101537.94;;;23.94;67.05
250;BME280;109;19.806;-70.704;2023-03-14T01:44:53;101541.53;;;23.93;67.53
250;BME280;109;19.806;-70.704;2023-03-14T01:47:27;101536.56;;;23.84;67.27
250;BME280;109;19.806;-70.704;2023-03-14T01:50:08;101544.34;;;23.90;67.42
250;BME280;109;19.806;-70.704;2023-03-14T01:52:46;101544.47;;;23.87;67.30
250;BME280;109;19.806;-70.704;2023-03-14T01:55:24;101549.47;;;23.96;67.13
250;BME280;109;19.806;-70.704;2023-03-14T01:58:03;101559.00;;;24.03;67.21
250;BME280;109;19.806;-70.704;2023-03-14T02:00:38;101555.47;;;24.03;67.34
250;BME280;109;19.806;-70.704;2023-03-14T02:03:09;101553.88;;;23.97;67.50
250;BME280;109;19.806;-70.704;2023-03-14T02:05:44;101553.66;;;24.03;67.66
250;BME280;109;19.806;-70.704;2023-03-14T02:08:19;101553.34;;;24.11;67.56
250;BME280;109;19.806;-70.704;2023-03-14T02:11:00;101559.69;;;24.09;67.17
250;BME280;109;19.806;-70.704;2023-03-14T02:13:54;101563.66;;;23.98;67.72
250;BME280;109;19.806;-70.704;2023-03-14T02:16:39;101566.06;;;24.06;67.75
250;BME280;109;19.806;-70.704;2023-03-14T02:19:14;101566.22;;;24.01;67.90
250;BME280;109;19.806;-70.704;2023-03-14T02:22:11;101561.06;;;23.95;67.67
250;BME280;109;19.806;-70.704;2023-03-14T02:27:36;101563.75;;;23.95;67.84
250;BME280;109;19.806;-70.704;2023-03-14T02:30:05;101567.25;;;23.97;67.82
250;BME280;109;19.806;-70.704;2023-03-14T02:32:43;101569.88;;;23.99;67.81
250;BME280;109;19.806;-70.704;2023-03-14T02:35:36;101572.59;;;23.97;67.45
250;BME280;109;19.806;-70.704;2023-03-14T02:38:33;101576.13;;;23.98;67.45
250;BME280;109;19.806;-70.704;2023-03-14T02:41:09;101584.16;;;23.98;67.54
250;BME280;109;19.806;-70.704;2023-03-14T02:43:42;101578.06;;;23.94;67.63
250;BME280;109;19.806;-70.704;2023-03-14T02:46:20;101582.31;;;24.00;67.71
250;BME280;109;19.806;-70.704;2023-03-14T02:48:57;101595.63;;;24.01;67.89
250;BME280;109;19.806;-70.704;2023-03-14T02:51:33;101597.38;;;24.02;67.65
250;BME280;109;19.806;-70.704;2023-03-14T02:54:00;101591.16;;;24.02;67.36
250;BME280;109;19.806;-70.704;2023-03-14T02:56:33;101594.75;;;24.01;67.22
250;BME280;109;19.806;-70.704;2023-03-14T02:59:05;101596.66;;;23.97;67.12
250;BME280;109;19.806;-70.704;2023-03-14T03:01:51;101599.28;;;23.99;67.21
250;BME280;109;19.806;-70.704;2023-03-14T03:04:25;101595.84;;;23.95;67.12
250;BME280;109;19.806;-70.704;2023-03-14T03:06:52;101606.53;;;23.95;67.13
250;BME280;109;19.806;-70.704;2023-03-14T03:09:25;101595.84;;;23.95;67.03
250;BME280;109;19.806;-70.704;2023-03-14T03:11:52;101598.56;;;23.94;66.80
250;BME280;109;19.806;-70.704;2023-03-14T03:14:35;101594.09;;;23.94;66.81
250;BME280;109;19.806;-70.704;2023-03-14T03:17:09;101606.69;;;23.92;66.80
250;BME280;109;19.806;-70.704;2023-03-14T03:19:38;101604.94;;;23.91;66.78
250;BME280;109;19.806;-70.704;2023-03-14T03:22:11;101597.69;;;23.93;66.81
250;BME280;109;19.806;-70.704;2023-03-14T03:24:40;101601.44;;;23.89;66.77
250;BME280;109;19.806;-70.704;2023-03-14T03:27:13;101613.88;;;23.90;66.92
250;BME280;109;19.806;-70.704;2023-03-14T03:29:40;101608.28;;;23.96;66.69
250;BME280;109;19.806;-70.704;2023-03-14T03:32:13;101603.75;;;23.98;66.59
250;BME280;109;19.806;-70.704;2023-03-14T03:34:40;101596.91;;;23.91;66.44
250;BME280;109;19.806;-70.704;2023-03-14T03:37:13;101603.19;;;23.90;66.37
250;BME280;109;19.806;-70.704;2023-03-14T03:39:53;101603.19;;;23.90;66.51
250;BME280;109;19.806;-70.704;2023-03-14T03:42:20;101604.09;;;23.89;66.57
250;BME280;109;19.806;-70.704;2023-03-14T03:44:53;101597.06;;;23.87;66.55
250;BME280;109;19.806;-70.704;2023-03-14T03:47:20;101591.72;;;23.87;66.43
250;BME280;109;19.806;-70.704;2023-03-14T03:49:55;101602.75;;;23.78;66.37
250;BME280;109;19.806;-70.704;2023-03-14T03:52:22;101597.28;;;23.81;66.46
250;BME280;109;19.806;-70.704;2023-03-14T03:55:02;101588.31;;;23.82;66.50
250;BME280;109;19.806;-70.704;2023-03-14T03:57:35;101595.63;;;23.78;66.50
250;BME280;109;19.806;-70.704;2023-03-14T04:00:03;101597.13;;;23.85;66.53
250;BME280;109;19.806;-70.704;2023-03-14T04:02:40;101597.41;;;23.78;66.38
250;BME280;109;19.806;-70.704;2023-03-14T04:05:09;101598.28;;;23.78;66.58
250;BME280;109;19.806;-70.704;2023-03-14T04:07:52;101596.53;;;23.77;66.40
250;BME280;109;19.806;-70.704;2023-03-14T04:10:28;101600.03;;;23.79;66.45
250;BME280;109;19.806;-70.704;2023-03-14T04:13:24;101605.44;;;23.78;66.36
250;BME280;109;19.806;-70.704;2023-03-14T04:15:57;101594.31;;;23.65;66.22
250;BME280;109;19.806;-70.704;2023-03-14T04:18:27;101602.19;;;23.68;66.41
250;BME280;109;19.806;-70.704;2023-03-14T04:21:01;101591.63;;;23.65;66.32
250;BME280;109;19.806;-70.704;2023-03-14T04:23:39;101595.34;;;23.61;66.25
250;BME280;109;19.806;-70.704;2023-03-14T04:26:14;101591.03;;;23.55;66.42
250;BME280;109;19.806;-70.704;2023-03-14T04:28:40;101581.41;;;23.51;66.39
250;BME280;109;19.806;-70.704;2023-03-14T04:31:19;101582.09;;;23.56;66.34
250;BME280;109;19.806;-70.704;2023-03-14T04:33:52;101576.81;;;23.55;66.21
250;BME280;109;19.806;-70.704;2023-03-14T04:36:45;101586.16;;;23.68;66.07
250;BME280;109;19.806;-70.704;2023-03-14T04:39:24;101583.31;;;23.73;66.06
250;BME280;109;19.806;-70.704;2023-03-14T04:42:24;101593.91;;;23.76;66.14
250;BME280;109;19.806;-70.704;2023-03-14T04:44:57;101596.41;;;23.80;66.08
250;BME280;109;19.806;-70.704;2023-03-14T04:47:26;101597.50;;;23.75;66.06
250;BME280;109;19.806;-70.704;2023-03-14T04:50:00;101591.50;;;23.68;66.15
250;BME280;109;19.806;-70.704;2023-03-14T04:52:28;101590.00;;;23.61;65.94
250;BME280;109;19.806;-70.704;2023-03-14T04:55:01;101583.16;;;23.52;66.00
250;BME280;109;19.806;-70.704;2023-03-14T04:57:37;101578.94;;;23.45;66.15
250;BME280;109;19.806;-70.704;2023-03-14T05:00:24;101578.25;;;23.40;66.18
250;BME280;109;19.806;-70.704;2023-03-14T05:03:07;101568.72;;;23.31;66.21
250;BME280;109;19.806;-70.704;2023-03-14T05:05:58;101572.47;;;23.27;66.25
250;BME280;109;19.806;-70.704;2023-03-14T05:08:51;101564.44;;;23.27;66.37
250;BME280;109;19.806;-70.704;2023-03-14T05:11:44;101562.78;;;23.23;66.58
250;BME280;109;19.806;-70.704;2023-03-14T05:14:46;101571.72;;;23.22;66.36
250;BME280;109;19.806;-70.704;2023-03-14T05:17:38;101562.91;;;23.20;66.57
250;BME280;109;19.806;-70.704;2023-03-14T05:20:27;101570.09;;;23.18;66.63
250;BME280;109;19.806;-70.704;2023-03-14T05:23:19;101565.63;;;23.19;66.68
250;BME280;109;19.806;-70.704;2023-03-14T05:26:10;101563.03;;;23.16;66.54
250;BME280;109;19.806;-70.704;2023-03-14T05:28:59;101559.56;;;23.14;66.54
250;BME280;109;19.806;-70.704;2023-03-14T05:31:51;101559.72;;;23.09;66.62
250;BME280;109;19.806;-70.704;2023-03-14T05:34:49;101558.06;;;23.05;66.42
250;BME280;109;19.806;-70.704;2023-03-14T05:37:30;101553.78;;;23.01;66.48
250;BME280;109;19.806;-70.704;2023-03-14T05:40:22;101548.50;;;22.99;66.48
250;BME280;109;19.806;-70.704;2023-03-14T05:43:03;101553.03;;;22.96;66.54
250;BME280;109;19.806;-70.704;2023-03-14T05:45:55;101547.63;;;22.97;66.41
250;BME280;109;19.806;-70.704;2023-03-14T05:48:58;101543.09;;;23.01;66.35
250;BME280;109;19.806;-70.704;2023-03-14T05:51:51;101535.16;;;22.99;66.35
250;BME280;109;19.806;-70.704;2023-03-14T05:54:44;101537.88;;;22.96;66.30
250;BME280;109;19.806;-70.704;2023-03-14T05:57:37;101532.63;;;22.93;66.36
250;BME280;109;19.806;-70.704;2023-03-14T06:00:30;101533.50;;;22.94;66.37
250;BME280;109;19.806;-70.704;2023-03-14T06:03:22;101526.28;;;22.97;66.57
250;BME280;109;19.806;-70.704;2023-03-14T06:05:55;101520.06;;;22.97;66.30
250;BME280;109;19.806;-70.704;2023-03-14T06:08:24;101531.75;;;22.93;66.06
250;BME280;109;19.806;-70.704;2023-03-14T06:10:57;101523.06;;;22.88;66.16
250;BME280;109;19.806;-70.704;2023-03-14T06:13:29;101510.81;;;22.81;66.13
250;BME280;109;19.806;-70.704;2023-03-14T06:16:02;101519.66;;;22.83;65.83
250;BME280;109;19.806;-70.704;2023-03-14T06:18:29;101518.91;;;22.78;65.80
250;BME280;109;19.806;-70.704;2023-03-14T06:21:06;101511.00;;;22.76;65.77
250;BME280;109;19.806;-70.704;2023-03-14T06:23:39;101515.56;;;22.73;65.53
250;BME280;109;19.806;-70.704;2023-03-14T06:26:06;101500.56;;;22.69;65.76
250;BME280;109;19.806;-70.704;2023-03-14T06:28:39;101504.25;;;22.64;65.80
250;BME280;109;19.806;-70.704;2023-03-14T06:31:06;101502.41;;;22.67;65.70
250;BME280;109;19.806;-70.704;2023-03-14T06:33:49;101499.63;;;22.70;65.70
250;BME280;109;19.806;-70.704;2023-03-14T06:36:37;101502.56;;;22.62;65.46
250;BME280;109;19.806;-70.704;2023-03-14T06:39:10;101498.25;;;22.58;65.61
250;BME280;109;19.806;-70.704;2023-03-14T06:41:41;101495.72;;;22.53;65.89
250;BME280;109;19.806;-70.704;2023-03-14T06:44:14;101499.16;;;22.57;65.46
250;BME280;109;19.806;-70.704;2023-03-14T06:46:41;101495.63;;;22.56;65.39
250;BME280;109;19.806;-70.704;2023-03-14T06:49:14;101495.94;;;22.47;64.84
250;BME280;109;19.806;-70.704;2023-03-14T06:51:49;101498.06;;;22.36;64.50
250;BME280;109;19.806;-70.704;2023-03-14T06:54:23;101497.44;;;22.26;64.95
250;BME280;109;19.806;-70.704;2023-03-14T06:56:50;101496.47;;;22.29;64.88
250;BME280;109;19.806;-70.704;2023-03-14T06:59:23;101500.16;;;22.25;64.11
250;BME280;109;19.806;-70.704;2023-03-14T07:01:51;101507.28;;;22.24;64.35
250;BME280;109;19.806;-70.704;2023-03-14T07:04:25;101501.19;;;22.21;64.45
250;BME280;109;19.806;-70.704;2023-03-14T07:06:52;101495.94;;;22.18;64.27
250;BME280;109;19.806;-70.704;2023-03-14T07:09:24;101496.78;;;22.20;64.32
250;BME280;109;19.806;-70.704;2023-03-14T07:11:56;101493.38;;;22.15;64.19
250;BME280;109;19.806;-70.704;2023-03-14T07:14:30;101498.88;;;22.10;64.00
250;BME280;109;19.806;-70.704;2023-03-14T07:16:56;101497.06;;;22.11;63.78
250;BME280;109;19.806;-70.704;2023-03-14T07:19:29;101499.00;;;22.06;63.96
250;BME280;109;19.806;-70.704;2023-03-14T07:21:56;101493.19;;;22.21;64.35
250;BME280;109;19.806;-70.704;2023-03-14T07:24:29;101490.75;;;22.13;63.94
250;BME280;109;19.806;-70.704;2023-03-14T07:26:56;101495.22;;;22.13;64.39
250;BME280;109;19.806;-70.704;2023-03-14T07:29:29;101488.22;;;22.10;64.50
250;BME280;109;19.806;-70.704;2023-03-14T07:31:57;101492.66;;;22.10;64.69
250;BME280;109;19.806;-70.704;2023-03-14T07:34:30;101487.50;;;22.04;64.66
250;BME280;109;19.806;-70.704;2023-03-14T07:37:17;101490.25;;;22.01;64.19
250;BME280;109;19.806;-70.704;2023-03-14T07:39:58;101489.59;;;21.94;64.20
250;BME280;109;19.806;-70.704;2023-03-14T07:42:32;101494.13;;;21.90;64.42
250;BME280;109;19.806;-70.704;2023-03-14T07:45:21;101494.22;;;21.87;64.29
250;BME280;109;19.806;-70.704;2023-03-14T07:47:54;101496.00;;;21.87;63.59
250;BME280;109;19.806;-70.704;2023-03-14T07:50:24;101492.59;;;21.83;64.11
250;BME280;109;19.806;-70.704;2023-03-14T07:52:57;101497.91;;;21.83;63.55
250;BME280;109;19.806;-70.704;2023-03-14T07:55:24;101496.03;;;21.85;63.83
250;BME280;109;19.806;-70.704;2023-03-14T07:57:56;101499.81;;;21.78;63.24
250;BME280;109;19.806;-70.704;2023-03-14T08:00:23;101494.53;;;21.75;63.07
250;BME280;109;19.806;-70.704;2023-03-14T08:02:56;101494.78;;;21.68;62.86
250;BME280;109;19.806;-70.704;2023-03-14T08:05:23;101503.06;;;21.58;62.70
250;BME280;109;19.806;-70.704;2023-03-14T08:07:56;101495.06;;;21.58;62.41
250;BME280;109;19.806;-70.704;2023-03-14T08:10:23;101500.31;;;21.60;62.15
250;BME280;109;19.806;-70.704;2023-03-14T08:12:58;101500.44;;;21.57;62.42
250;BME280;109;19.806;-70.704;2023-03-14T08:15:25;101493.34;;;21.56;62.04
250;BME280;109;19.806;-70.704;2023-03-14T08:17:58;101497.81;;;21.55;62.12
250;BME280;109;19.806;-70.704;2023-03-14T08:20:27;101497.88;;;21.52;62.39
250;BME280;109;19.806;-70.704;2023-03-14T08:23:01;101504.16;;;21.50;62.40
250;BME280;109;19.806;-70.704;2023-03-14T08:25:34;101502.41;;;21.49;61.81
250;BME280;109;19.806;-70.704;2023-03-14T08:28:14;101494.53;;;21.46;61.95
250;BME280;109;19.806;-70.704;2023-03-14T08:30:41;101497.44;;;21.37;61.44
250;BME280;109;19.806;-70.704;2023-03-14T08:33:14;101488.75;;;21.30;61.13
250;BME280;109;19.806;-70.704;2023-03-14T08:35:41;101489.81;;;21.23;61.29
250;BME280;109;19.806;-70.704;2023-03-14T08:38:21;101490.78;;;21.20;61.42
250;BME280;109;19.806;-70.704;2023-03-14T08:41:02;101494.31;;;21.21;61.02
250;BME280;109;19.806;-70.704;2023-03-14T08:43:36;101490.88;;;21.17;61.28
250;BME280;109;19.806;-70.704;2023-03-14T08:46:03;101492.63;;;21.18;61.30
250;BME280;109;19.806;-70.704;2023-03-14T08:48:36;101494.38;;;21.19;60.75
250;BME280;109;19.806;-70.704;2023-03-14T08:51:08;101491.00;;;21.13;60.71
250;BME280;109;19.806;-70.704;2023-03-14T08:53:43;101483.91;;;21.10;60.86
250;BME280;109;19.806;-70.704;2023-03-14T08:56:10;101492.75;;;21.12;60.11
250;BME280;109;19.806;-70.704;2023-03-14T08:58:43;101489.44;;;21.04;59.90
250;BME280;109;19.806;-70.704;2023-03-14T09:01:10;101485.84;;;21.05;60.28
250;BME280;109;19.806;-70.704;2023-03-14T09:03:43;101494.75;;;21.04;60.32
250;BME280;109;19.806;-70.704;2023-03-14T09:06:12;101494.81;;;21.01;60.01
250;BME280;109;19.806;-70.704;2023-03-14T09:08:46;101502.00;;;20.98;59.87
250;BME280;109;19.806;-70.704;2023-03-14T09:11:20;101501.91;;;21.02;59.79
250;BME280;109;19.806;-70.704;2023-03-14T09:13:53;101504.56;;;21.02;60.00
250;BME280;109;19.806;-70.704;2023-03-14T09:16:20;101510.78;;;21.01;59.80
250;BME280;109;19.806;-70.704;2023-03-14T09:18:53;101518.00;;;20.96;59.44
250;BME280;109;19.806;-70.704;2023-03-14T09:21:23;101514.53;;;20.94;59.40
250;BME280;109;19.806;-70.704;2023-03-14T09:23:56;101525.78;;;21.05;59.77
250;BME280;109;19.806;-70.704;2023-03-14T09:26:23;101520.34;;;21.08;59.56
250;BME280;109;19.806;-70.704;2023-03-14T09:28:56;101521.22;;;21.09;59.28
250;BME280;109;19.806;-70.704;2023-03-14T09:31:23;101530.19;;;21.06;59.43
250;BME280;109;19.806;-70.704;2023-03-14T09:33:56;101531.22;;;21.01;59.56
250;BME280;109;19.806;-70.704;2023-03-14T09:36:43;101539.16;;;21.02;59.88
250;BME280;109;19.806;-70.704;2023-03-14T09:39:17;101533.88;;;21.01;60.25
250;BME280;109;19.806;-70.704;2023-03-14T09:41:46;101539.25;;;20.98;59.86
250;BME280;109;19.806;-70.704;2023-03-14T09:44:29;101543.72;;;20.97;59.83
250;BME280;109;19.806;-70.704;2023-03-14T09:47:09;101544.63;;;20.96;59.77
250;BME280;109;19.806;-70.704;2023-03-14T09:49:47;101549.13;;;20.94;59.59
250;BME280;109;19.806;-70.704;2023-03-14T09:52:15;101550.97;;;20.92;59.73
250;BME280;109;19.806;-70.704;2023-03-14T09:55:04;101550.78;;;20.98;59.66
250;BME280;109;19.806;-70.704;2023-03-14T09:57:38;101557.06;;;20.96;59.70
250;BME280;109;19.806;-70.704;2023-03-14T10:05:46;101557.88;;;20.98;59.90
250;BME280;109;19.806;-70.704;2023-03-14T10:08:13;101557.78;;;21.02;59.81
250;BME280;109;19.806;-70.704;2023-03-14T10:10:46;101563.25;;;20.96;59.54
250;BME280;109;19.806;-70.704;2023-03-14T10:13:24;101557.13;;;20.94;59.48
250;BME280;109;19.806;-70.704;2023-03-14T10:16:04;101567.91;;;20.88;59.01
250;BME280;109;19.806;-70.704;2023-03-14T10:18:45;101571.63;;;20.81;59.02
250;BME280;109;19.806;-70.704;2023-03-14T10:21:28;101570.94;;;20.73;59.57
250;BME280;109;19.806;-70.704;2023-03-14T10:24:09;101571.81;;;20.73;59.22
250;BME280;109;19.806;-70.704;2023-03-14T10:26:43;101575.28;;;20.77;59.20
250;BME280;109;19.806;-70.704;2023-03-14T10:29:12;101579.84;;;20.70;59.42
250;BME280;109;19.806;-70.704;2023-03-14T10:34:34;101582.53;;;20.69;59.61
250;BME280;109;19.806;-70.704;2023-03-14T10:37:20;101587.81;;;20.70;59.40
250;BME280;109;19.806;-70.704;2023-03-14T10:40:02;101589.56;;;20.71;59.69
250;BME280;109;19.806;-70.704;2023-03-14T10:42:43;101588.56;;;20.77;59.50
250;BME280;109;19.806;-70.704;2023-03-14T10:45:31;101587.44;;;20.87;59.22
250;BME280;109;19.806;-70.704;2023-03-14T10:48:20;101595.31;;;20.92;59.11
250;BME280;109;19.806;-70.704;2023-03-14T10:50:57;101599.75;;;20.91;58.64
250;BME280;109;19.806;-70.704;2023-03-14T10:56:20;101608.59;;;20.93;58.90
250;BME280;109;19.806;-70.704;2023-03-14T10:58:49;101617.50;;;20.91;58.34
250;BME280;109;19.806;-70.704;2023-03-14T11:07:08;101628.53;;;20.74;59.10
250;BME280;109;19.806;-70.704;2023-03-14T11:09:56;101630.41;;;20.69;58.77
250;BME280;109;19.806;-70.704;2023-03-14T11:12:46;101637.69;;;20.62;58.91
250;BME280;109;19.806;-70.704;2023-03-14T11:20:41;101642.72;;;20.74;58.14
250;BME280;109;19.806;-70.704;2023-03-14T11:23:38;101652.44;;;20.77;57.97
250;BME280;109;19.806;-70.704;2023-03-14T11:29:17;101653.06;;;20.88;58.18
250;BME280;109;19.806;-70.704;2023-03-14T11:31:46;101655.72;;;20.88;58.18
250;BME280;109;19.806;-70.704;2023-03-14T11:34:32;101660.94;;;20.93;58.39
250;BME280;109;19.806;-70.704;2023-03-14T11:37:12;101665.03;;;21.07;58.45
250;BME280;109;19.806;-70.704;2023-03-14T11:39:45;101674.56;;;21.17;57.90
250;BME280;109;19.806;-70.704;2023-03-14T11:42:16;101659.19;;;21.29;58.14
250;BME280;109;19.806;-70.704;2023-03-14T11:44:48;101666.13;;;21.36;58.25
250;BME280;109;19.806;-70.704;2023-03-14T11:47:41;101665.91;;;21.45;58.41
250;BME280;109;19.806;-70.704;2023-03-14T11:52:47;101665.28;;;21.68;58.10
250;BME280;109;19.806;-70.704;2023-03-14T11:57:49;101673.53;;;21.92;58.29
250;BME280;109;19.806;-70.704;2023-03-14T12:00:20;101680.16;;;22.10;57.90
250;BME280;109;19.806;-70.704;2023-03-14T12:13:09;101666.38;;;22.86;56.29
250;BME280;109;19.806;-70.704;2023-03-14T12:15:42;101682.88;;;23.00;56.13
250;BME280;109;19.806;-70.704;2023-03-14T12:18:33;101687.63;;;23.17;55.71
250;BME280;109;19.806;-70.704;2023-03-14T12:21:03;101692.47;;;23.32;55.74
250;BME280;109;19.806;-70.704;2023-03-14T12:23:39;101690.38;;;23.42;55.57
250;BME280;109;19.806;-70.704;2023-03-14T12:26:15;101692.72;;;23.52;55.81
250;BME280;109;19.806;-70.704;2023-03-14T12:28:50;101698.59;;;23.63;55.60
250;BME280;109;19.806;-70.704;2023-03-14T12:44:46;101701.38;;;24.10;58.09
250;BME280;109;19.806;-70.704;2023-03-14T12:49:51;101714.81;;;24.09;58.66
250;BME280;109;19.806;-70.704;2023-03-14T12:52:51;101719.06;;;24.14;58.84
250;BME280;109;19.806;-70.704;2023-03-14T12:56:06;101727.03;;;24.17;58.37
250;BME280;109;19.806;-70.704;2023-03-14T13:01:24;101730.13;;;24.30;57.53
250;BME280;109;19.806;-70.704;2023-03-14T13:06:54;101732.25;;;24.68;57.26
250;BME280;109;19.806;-70.704;2023-03-14T13:12:20;101731.81;;;25.02;55.61
250;BME280;109;19.806;-70.704;2023-03-14T13:17:56;101734.06;;;25.13;55.85
250;BME280;109;19.806;-70.704;2023-03-14T13:20:32;101728.59;;;25.16;55.79
250;BME280;109;19.806;-70.704;2023-03-14T13:23:00;101729.34;;;25.20;56.56
250;BME280;109;19.806;-70.704;2023-03-14T13:25:32;101734.81;;;25.17;56.03
250;BME280;109;19.806;-70.704;2023-03-14T13:28:01;101738.00;;;25.26;57.12
250;BME280;109;19.806;-70.704;2023-03-14T13:30:38;101742.88;;;25.38;56.14
250;BME280;109;19.806;-70.704;2023-03-14T13:33:05;101735.84;;;25.58;55.87
250;BME280;109;19.806;-70.704;2023-03-14T13:38:24;101742.78;;;25.41;56.29
250;BME280;109;19.806;-70.704;2023-03-14T13:40:54;101748.19;;;25.40;56.79
250;BME280;109;19.806;-70.704;2023-03-14T13:43:41;101751.75;;;25.40;57.61
250;BME280;109;19.806;-70.704;2023-03-14T13:46:16;101756.88;;;25.23;58.06
250;BME280;109;19.806;-70.704;2023-03-14T13:48:57;101755.31;;;25.18;57.95
250;BME280;109;19.806;-70.704;2023-03-14T13:51:25;101764.28;;;25.17;57.62
250;BME280;109;19.806;-70.704;2023-03-14T13:53:55;101764.34;;;25.15;58.51
250;BME280;109;19.806;-70.704;2023-03-14T13:56:25;101759.97;;;25.13;59.19
250;BME280;109;19.806;-70.704;2023-03-14T13:58:52;101762.91;;;25.30;58.57
250;BME280;109;19.806;-70.704;2023-03-14T14:01:35;101764.72;;;25.29;57.95
250;BME280;109;19.806;-70.704;2023-03-14T14:04:14;101761.28;;;25.24;58.56
250;BME280;109;19.806;-70.704;2023-03-14T14:06:46;101762.91;;;25.30;58.57
250;BME280;109;19.806;-70.704;2023-03-14T14:12:02;101755.00;;;25.25;59.42
250;BME280;109;19.806;-70.704;2023-03-14T14:14:36;101752.69;;;25.39;58.51
250;BME280;109;19.806;-70.704;2023-03-14T14:17:07;101760.72;;;25.39;58.22
250;BME280;109;19.806;-70.704;2023-03-14T14:19:36;101760.72;;;25.39;58.54
250;BME280;109;19.806;-70.704;2023-03-14T14:22:04;101763.81;;;25.51;58.68
250;BME280;109;19.806;-70.704;2023-03-14T14:24:32;101760.34;;;25.49;58.26
250;BME280;109;19.806;-70.704;2023-03-14T14:27:01;101756.66;;;25.29;57.02
250;BME280;109;19.806;-70.704;2023-03-14T14:29:32;101761.91;;;25.32;58.94
250;BME280;109;19.806;-70.704;2023-03-14T14:32:19;101757.56;;;25.28;59.34
250;BME280;109;19.806;-70.704;2023-03-14T14:34:55;101750.81;;;25.41;57.62
250;BME280;109;19.806;-70.704;2023-03-14T14:37:31;101759.91;;;25.37;57.87
250;BME280;109;19.806;-70.704;2023-03-14T14:40:21;101756.06;;;25.44;58.07
250;BME280;109;19.806;-70.704;2023-03-14T14:42:47;101752.16;;;25.52;57.25
250;BME280;109;19.806;-70.704;2023-03-14T14:45:17;101753.31;;;25.46;56.85
250;BME280;109;19.806;-70.704;2023-03-14T14:47:53;101751.63;;;25.43;56.21
250;BME280;109;19.806;-70.704;2023-03-14T14:53:29;101753.34;;;25.66;55.04
250;BME280;109;19.806;-70.704;2023-03-14T14:56:04;101750.13;;;25.58;55.38
250;BME280;109;19.806;-70.704;2023-03-14T14:58:39;101754.41;;;25.62;56.29
250;BME280;109;19.806;-70.704;2023-03-14T15:01:36;101751.44;;;25.48;57.24
250;BME280;109;19.806;-70.704;2023-03-14T15:04:09;101748.03;;;25.65;57.54
250;BME280;109;19.806;-70.704;2023-03-14T15:06:38;101743.91;;;25.78;56.17
250;BME280;109;19.806;-70.704;2023-03-14T15:09:05;101736.53;;;25.83;55.38
250;BME280;109;19.806;-70.704;2023-03-14T15:11:32;101740.53;;;25.95;55.39